createdAt,value
2023-01-29T00:01:13.377Z,-0.34
2023-01-29T00:03:42.063Z,-0.25
2023-01-29T00:06:11.474Z,-0.19
2023-01-29T00:08:40.210Z,-0.20
2023-01-29T00:11:09.493Z,-0.24
2023-01-29T00:13:38.991Z,-0.25
2023-01-29T00:16:07.628Z,-0.25
2023-01-29T00:18:40.589Z,-0.26
2023-01-29T00:21:14.375Z,-0.24
2023-01-29T00:23:43.538Z,-0.25
2023-01-29T00:26:13.409Z,-0.25
2023-01-29T00:28:44.259Z,-0.25
2023-01-29T00:31:22.465Z,-0.22
2023-01-29T00:33:51.737Z,-0.13
2023-01-29T00:36:22.131Z,-0.07
2023-01-29T00:38:59.025Z,-0.06
2023-01-29T00:41:48.257Z,-0.04
2023-01-29T00:44:35.901Z,-0.01
2023-01-29T00:47:05.356Z,0.06
2023-01-29T00:49:34.059Z,0.12
2023-01-29T00:52:21.029Z,0.16
2023-01-29T00:54:52.641Z,0.19
2023-01-29T00:57:21.550Z,0.24
2023-01-29T00:59:50.559Z,0.24
2023-01-29T01:02:38.500Z,0.28
2023-01-29T01:05:14.204Z,0.31
2023-01-29T01:08:01.443Z,0.33
2023-01-29T01:10:35.242Z,0.38
2023-01-29T01:13:07.412Z,0.38
2023-01-29T01:15:40.841Z,0.40
2023-01-29T01:18:09.561Z,0.45
2023-01-29T01:20:38.063Z,0.51
2023-01-29T01:23:07.055Z,0.55
2023-01-29T01:25:35.531Z,0.56
2023-01-29T01:28:03.962Z,0.55
2023-01-29T01:30:33.315Z,0.52
2023-01-29T01:33:02.418Z,0.47
2023-01-29T01:35:32.203Z,0.47
2023-01-29T01:38:00.697Z,0.49
2023-01-29T01:40:29.543Z,0.50
2023-01-29T01:43:00.545Z,0.50
2023-01-29T01:45:36.070Z,0.48
2023-01-29T01:48:23.303Z,0.44
2023-01-29T01:51:03.598Z,0.39
2023-01-29T01:53:40.168Z,0.41
2023-01-29T01:56:16.533Z,0.43
2023-01-29T01:58:52.024Z,0.42
2023-01-29T02:01:30.477Z,0.35
2023-01-29T02:04:26.799Z,0.29
2023-01-29T02:07:16.384Z,0.24
2023-01-29T02:09:51.884Z,0.23
2023-01-29T02:12:25.022Z,0.24
2023-01-29T02:14:53.401Z,0.26
2023-01-29T02:17:22.224Z,0.26
2023-01-29T02:20:12.107Z,0.23
2023-01-29T02:22:59.447Z,0.24
2023-01-29T02:25:52.716Z,0.23
2023-01-29T02:28:24.002Z,0.19
2023-01-29T02:31:09.680Z,0.19
2023-01-29T02:33:51.847Z,0.25
2023-01-29T02:36:30.292Z,0.27
2023-01-29T02:39:19.652Z,0.23
2023-01-29T02:42:03.314Z,0.16
2023-01-29T02:44:44.525Z,0.12
2023-01-29T02:47:33.666Z,0.09
2023-01-29T02:50:10.867Z,0.13
2023-01-29T02:52:54.422Z,0.18
2023-01-29T02:55:29.711Z,0.22
2023-01-29T02:58:07.834Z,0.23
2023-01-29T03:00:41.594Z,0.22
2023-01-29T03:03:19.214Z,0.23
2023-01-29T03:05:51.434Z,0.25
2023-01-29T03:08:36.981Z,0.30
2023-01-29T03:11:07.312Z,0.34
2023-01-29T03:13:53.686Z,0.33
2023-01-29T03:16:33.116Z,0.26
2023-01-29T03:19:32.139Z,0.21
2023-01-29T03:22:04.772Z,0.19
2023-01-29T03:25:00.944Z,0.16
2023-01-29T03:28:19.182Z,0.18
2023-01-29T03:31:09.550Z,0.16
2023-01-29T03:34:08.196Z,0.18
2023-01-29T03:36:47.999Z,0.15
2023-01-29T03:39:18.360Z,0.09
2023-01-29T03:42:19.713Z,0.09
2023-01-29T03:44:49.023Z,0.11
2023-01-29T03:47:49.816Z,0.15
2023-01-29T03:50:41.308Z,0.18
2023-01-29T03:53:15.755Z,0.17
2023-01-29T03:55:58.425Z,0.15
2023-01-29T03:58:47.839Z,0.09
2023-01-29T04:01:56.314Z,0.00
2023-01-29T04:04:30.432Z,0.00
2023-01-29T04:07:24.829Z,0.06
2023-01-29T04:10:11.706Z,0.06
2023-01-29T04:12:53.599Z,0.04
2023-01-29T04:15:24.401Z,0.00
2023-01-29T04:17:56.079Z,-0.03
2023-01-29T04:20:47.072Z,-0.09
2023-01-29T04:23:27.076Z,-0.14
2023-01-29T04:26:08.257Z,-0.13
2023-01-29T04:29:00.311Z,-0.13
2023-01-29T04:31:39.098Z,-0.20
2023-01-29T04:34:11.792Z,-0.22
2023-01-29T04:36:49.247Z,-0.21
2023-01-29T04:39:47.085Z,-0.20
2023-01-29T04:42:41.871Z,-0.14
2023-01-29T04:45:28.927Z,-0.09
2023-01-29T04:48:09.703Z,-0.13
2023-01-29T04:50:50.490Z,-0.17
2023-01-29T04:53:41.785Z,-0.25
2023-01-29T04:56:31.083Z,-0.33
2023-01-29T04:59:07.631Z,-0.34
2023-01-29T05:01:38.296Z,-0.35
2023-01-29T05:04:12.264Z,-0.34
2023-01-29T05:06:41.865Z,-0.30
2023-01-29T05:09:10.295Z,-0.31
2023-01-29T05:11:38.703Z,-0.32
2023-01-29T05:14:10.242Z,-0.39
2023-01-29T05:16:43.848Z,-0.37
2023-01-29T05:19:14.923Z,-0.33
2023-01-29T05:21:46.874Z,-0.28
2023-01-29T05:24:24.265Z,-0.27
2023-01-29T05:27:13.536Z,-0.29
2023-01-29T05:29:48.640Z,-0.37
2023-01-29T05:32:17.123Z,-0.43
2023-01-29T05:34:45.587Z,-0.41
2023-01-29T05:37:14.041Z,-0.42
2023-01-29T05:39:42.444Z,-0.41
2023-01-29T05:42:10.869Z,-0.43
2023-01-29T05:44:39.336Z,-0.47
2023-01-29T05:47:07.775Z,-0.53
2023-01-29T05:49:38.642Z,-0.57
2023-01-29T05:52:07.236Z,-0.57
2023-01-29T05:54:35.707Z,-0.53
2023-01-29T05:57:04.392Z,-0.48
2023-01-29T05:59:32.870Z,-0.42
2023-01-29T06:02:01.457Z,-0.41
2023-01-29T06:04:29.945Z,-0.46
2023-01-29T06:06:58.458Z,-0.51
2023-01-29T06:09:26.973Z,-0.58
2023-01-29T06:11:55.519Z,-0.56
2023-01-29T06:14:24.090Z,-0.55
2023-01-29T06:16:52.635Z,-0.58
2023-01-29T06:19:21.210Z,-0.61
2023-01-29T06:21:50.127Z,-0.68
2023-01-29T06:24:18.728Z,-0.67
2023-01-29T06:26:47.381Z,-0.62
2023-01-29T06:29:16.015Z,-0.52
2023-01-29T06:31:44.580Z,-0.53
2023-01-29T06:34:13.310Z,-0.52
2023-01-29T06:36:42.576Z,-0.55
2023-01-29T06:39:11.657Z,-0.60
2023-01-29T06:41:40.910Z,-0.64
2023-01-29T06:44:09.480Z,-0.66
2023-01-29T06:46:38.992Z,-0.62
2023-01-29T06:49:07.564Z,-0.56
2023-01-29T06:51:36.144Z,-0.54
2023-01-29T06:54:07.674Z,-0.57
2023-01-29T06:56:36.393Z,-0.61
2023-01-29T06:59:05.635Z,-0.65
2023-01-29T07:01:36.593Z,-0.65
2023-01-29T07:04:05.538Z,-0.64
2023-01-29T07:06:34.219Z,-0.62
2023-01-29T07:09:04.524Z,-0.54
2023-01-29T07:11:35.361Z,-0.54
2023-01-29T07:14:05.306Z,-0.59
2023-01-29T07:16:38.396Z,-0.67
2023-01-29T07:19:06.952Z,-0.69
2023-01-29T07:21:35.444Z,-0.70
2023-01-29T07:24:04.300Z,-0.71
2023-01-29T07:26:32.826Z,-0.68
2023-01-29T07:29:01.393Z,-0.64
2023-01-29T07:31:30.775Z,-0.55
2023-01-29T07:33:59.599Z,-0.51
2023-01-29T07:36:29.466Z,-0.53
2023-01-29T07:38:58.602Z,-0.57
2023-01-29T07:41:27.241Z,-0.66
2023-01-29T07:43:56.583Z,-0.68
2023-01-29T07:46:25.147Z,-0.57
2023-01-29T07:48:54.129Z,-0.61
2023-01-29T07:51:22.825Z,-0.58
2023-01-29T07:53:53.839Z,-0.61
2023-01-29T07:56:22.469Z,-0.66
2023-01-29T07:58:51.036Z,-0.74
2023-01-29T08:01:19.648Z,-0.75
2023-01-29T08:03:50.516Z,-0.71
2023-01-29T08:06:19.873Z,-0.66
2023-01-29T08:08:53.859Z,-0.61
2023-01-29T08:11:22.424Z,-0.59
2023-01-29T08:13:51.316Z,-0.60
2023-01-29T08:16:23.129Z,-0.63
2023-01-29T08:18:51.860Z,-0.61
2023-01-29T08:21:20.556Z,-0.56
2023-01-29T08:23:49.202Z,-0.49
2023-01-29T08:26:17.603Z,-0.43
2023-01-29T08:28:46.228Z,-0.40
2023-01-29T08:31:16.530Z,-0.37
2023-01-29T08:33:45.049Z,-0.38
2023-01-29T08:36:13.930Z,-0.39
2023-01-29T08:38:42.574Z,-0.39
2023-01-29T08:41:11.236Z,-0.34
2023-01-29T08:43:40.736Z,-0.23
2023-01-29T08:46:09.564Z,-0.12
2023-01-29T08:48:38.330Z,-0.06
2023-01-29T08:51:07.277Z,0.01
2023-01-29T08:53:36.813Z,0.03
2023-01-29T08:56:05.560Z,0.03
2023-01-29T08:58:34.108Z,0.03
2023-01-29T09:01:11.757Z,0.05
2023-01-29T09:03:44.666Z,0.06
2023-01-29T09:06:14.139Z,0.07
2023-01-29T09:08:42.567Z,0.08
2023-01-29T09:11:11.920Z,0.11
2023-01-29T09:13:40.487Z,0.20
2023-01-29T09:16:10.924Z,0.28
2023-01-29T09:18:39.492Z,0.30
2023-01-29T09:21:08.032Z,0.35
2023-01-29T09:23:36.529Z,0.44
2023-01-29T09:26:05.114Z,0.49
2023-01-29T09:28:33.534Z,0.51
2023-01-29T09:31:03.685Z,0.53
2023-01-29T09:33:32.741Z,0.59
2023-01-29T09:36:03.718Z,0.66
2023-01-29T09:38:32.247Z,0.74
2023-01-29T09:41:15.910Z,0.73
2023-01-29T09:43:56.993Z,0.73
2023-01-29T09:46:34.533Z,0.70
2023-01-29T09:49:34.200Z,0.65
2023-01-29T09:52:10.446Z,0.63
2023-01-29T09:54:54.324Z,0.62
2023-01-29T09:57:28.204Z,0.69
2023-01-29T09:59:56.751Z,0.80
2023-01-29T10:02:53.361Z,0.94
2023-01-29T10:05:58.833Z,1.03
2023-01-29T10:08:47.946Z,1.01
2023-01-29T10:11:55.209Z,1.03
2023-01-29T10:14:43.419Z,1.06
2023-01-29T10:17:40.259Z,1.00
2023-01-29T10:20:37.538Z,0.94
2023-01-29T10:23:26.754Z,0.94
2023-01-29T10:25:55.840Z,0.87
2023-01-29T10:28:39.126Z,0.78
2023-01-29T10:31:12.701Z,0.75
2023-01-29T10:33:49.561Z,0.73
2023-01-29T10:36:47.575Z,0.79
2023-01-29T10:39:26.895Z,0.83
2023-01-29T10:42:07.726Z,0.82
2023-01-29T10:45:07.524Z,0.77
2023-01-29T10:47:54.728Z,0.70
2023-01-29T10:50:38.433Z,0.69
2023-01-29T10:53:25.868Z,0.70
2023-01-29T10:56:29.594Z,0.68
2023-01-29T10:59:05.626Z,0.67
2023-01-29T11:01:34.158Z,0.75
2023-01-29T11:04:06.495Z,0.85
2023-01-29T11:06:36.785Z,0.93
2023-01-29T11:12:15.593Z,0.95
2023-01-29T11:14:53.031Z,0.88
2023-01-29T11:17:24.394Z,0.82
2023-01-29T11:19:57.508Z,0.75
2023-01-29T11:22:31.684Z,0.69
2023-01-29T11:25:21.111Z,0.62
2023-01-29T11:27:56.154Z,0.65
2023-01-29T11:30:28.197Z,0.63
2023-01-29T11:33:20.798Z,0.56
2023-01-29T11:35:50.224Z,0.50
2023-01-29T11:38:29.937Z,0.45
2023-01-29T11:41:22.592Z,0.40
2023-01-29T11:43:51.040Z,0.38
2023-01-29T11:46:19.502Z,0.35
2023-01-29T11:48:53.559Z,0.34
2023-01-29T11:51:26.130Z,0.37
2023-01-29T11:54:01.380Z,0.42
2023-01-29T11:56:41.756Z,0.46
2023-01-29T11:59:25.249Z,0.45
2023-01-29T12:01:55.726Z,0.43
2023-01-29T12:04:26.620Z,0.38
2023-01-29T12:06:55.131Z,0.35
2023-01-29T12:09:28.427Z,0.31
2023-01-29T12:12:36.920Z,0.24
2023-01-29T12:15:14.440Z,0.24
2023-01-29T12:17:52.410Z,0.31
2023-01-29T12:20:29.273Z,0.35
2023-01-29T12:23:12.863Z,0.37
2023-01-29T12:25:50.308Z,0.40
2023-01-29T12:28:39.515Z,0.43
2023-01-29T12:31:53.695Z,0.47
2023-01-29T12:34:31.839Z,0.52
2023-01-29T12:37:05.244Z,0.52
2023-01-29T12:39:33.689Z,0.51
2023-01-29T12:42:09.215Z,0.51
2023-01-29T12:44:43.948Z,0.51
2023-01-29T12:47:32.548Z,0.50
2023-01-29T12:50:24.423Z,0.47
2023-01-29T12:52:55.498Z,0.44
2023-01-29T12:55:34.552Z,0.50
2023-01-29T12:58:10.115Z,0.51
2023-01-29T13:00:46.215Z,0.42
2023-01-29T13:03:30.089Z,0.37
2023-01-29T13:06:51.367Z,0.34
2023-01-29T13:09:29.055Z,0.31
2023-01-29T13:12:21.905Z,0.24
2023-01-29T13:14:56.720Z,0.22
2023-01-29T13:17:49.323Z,0.25
2023-01-29T13:20:30.245Z,0.27
2023-01-29T13:23:15.621Z,0.24
2023-01-29T13:25:44.122Z,0.12
2023-01-29T13:28:25.985Z,0.09
2023-01-29T13:31:13.226Z,0.10
2023-01-29T13:33:51.843Z,0.09
2023-01-29T13:36:27.673Z,-0.01
2023-01-29T13:39:04.120Z,-0.05
2023-01-29T13:41:38.613Z,-0.06
2023-01-29T13:44:19.221Z,-0.04
2023-01-29T13:46:56.240Z,-0.03
2023-01-29T13:49:39.977Z,-0.02
2023-01-29T13:52:30.497Z,-0.05
2023-01-29T13:55:04.253Z,-0.09
2023-01-29T13:57:45.033Z,-0.17
2023-01-29T14:00:22.684Z,-0.19
2023-01-29T14:02:57.175Z,-0.22
2023-01-29T14:05:31.924Z,-0.23
2023-01-29T14:08:26.473Z,-0.19
2023-01-29T14:11:13.671Z,-0.17
2023-01-29T14:13:44.012Z,-0.15
2023-01-29T14:16:12.485Z,-0.16
2023-01-29T14:18:57.400Z,-0.22
2023-01-29T14:21:36.126Z,-0.27
2023-01-29T14:24:16.618Z,-0.34
2023-01-29T14:26:48.403Z,-0.39
2023-01-29T14:29:33.773Z,-0.37
2023-01-29T14:32:07.174Z,-0.33
2023-01-29T14:34:42.956Z,-0.27
2023-01-29T14:37:18.864Z,-0.23
2023-01-29T14:39:59.826Z,-0.25
2023-01-29T14:42:35.620Z,-0.32
2023-01-29T14:45:11.522Z,-0.36
2023-01-29T14:47:39.908Z,-0.37
2023-01-29T14:50:32.011Z,-0.37
2023-01-29T14:53:06.568Z,-0.43
2023-01-29T14:56:00.166Z,-0.47
2023-01-29T14:58:44.106Z,-0.46
2023-01-29T15:01:34.286Z,-0.41
2023-01-29T15:04:19.383Z,-0.40
2023-01-29T15:06:55.583Z,-0.40
2023-01-29T15:09:35.949Z,-0.42
2023-01-29T15:12:11.129Z,-0.49
2023-01-29T15:14:50.403Z,-0.56
2023-01-29T15:17:26.791Z,-0.61
2023-01-29T15:19:56.953Z,-0.68
2023-01-29T15:22:26.385Z,-0.68
2023-01-29T15:25:20.702Z,-0.64
2023-01-29T15:27:51.689Z,-0.62
2023-01-29T15:30:26.607Z,-0.63
2023-01-29T15:32:55.371Z,-0.64
2023-01-29T15:35:41.705Z,-0.67
2023-01-29T15:38:19.676Z,-0.74
2023-01-29T15:41:02.479Z,-0.81
2023-01-29T15:43:44.643Z,-0.82
2023-01-29T15:46:24.321Z,-0.79
2023-01-29T15:48:55.342Z,-0.74
2023-01-29T15:51:26.279Z,-0.70
2023-01-29T15:54:09.862Z,-0.69
2023-01-29T15:56:51.779Z,-0.71
2023-01-29T15:59:25.071Z,-0.73
2023-01-29T16:01:54.405Z,-0.75
2023-01-29T16:04:30.515Z,-0.80
2023-01-29T16:07:00.928Z,-0.87
2023-01-29T16:09:30.212Z,-0.90
2023-01-29T16:12:00.205Z,-0.89
2023-01-29T16:14:30.529Z,-0.89
2023-01-29T16:17:11.887Z,-0.89
2023-01-29T16:19:40.407Z,-0.90
2023-01-29T16:22:10.322Z,-0.95
2023-01-29T16:24:39.326Z,-0.96
2023-01-29T16:27:13.761Z,-0.99
2023-01-29T16:29:42.280Z,-1.03
2023-01-29T16:32:14.083Z,-1.02
2023-01-29T16:34:45.858Z,-0.96
2023-01-29T16:37:40.617Z,-0.93
2023-01-29T16:40:25.763Z,-0.89
2023-01-29T16:43:34.263Z,-0.90
2023-01-29T16:46:26.339Z,-0.94
2023-01-29T16:48:55.046Z,-0.97
2023-01-29T16:51:28.550Z,-1.00
2023-01-29T16:54:02.749Z,-1.02
2023-01-29T16:56:33.549Z,-1.03
2023-01-29T16:59:06.051Z,-1.00
2023-01-29T17:01:36.159Z,-0.93
2023-01-29T17:04:17.353Z,-0.91
2023-01-29T17:06:49.154Z,-0.90
2023-01-29T17:09:26.593Z,-0.88
2023-01-29T17:12:03.118Z,-0.90
2023-01-29T17:14:32.871Z,-0.92
2023-01-29T17:17:15.258Z,-0.95
2023-01-29T17:19:43.679Z,-0.98
2023-01-29T17:22:15.038Z,-1.00
2023-01-29T17:24:44.053Z,-1.01
2023-01-29T17:27:19.600Z,-0.99
2023-01-29T17:29:48.623Z,-0.95
2023-01-29T17:32:19.086Z,-0.92
2023-01-29T17:34:47.610Z,-0.94
2023-01-29T17:37:16.689Z,-0.98
2023-01-29T17:39:50.554Z,-0.97
2023-01-29T17:42:18.923Z,-0.97
2023-01-29T17:44:47.314Z,-1.00
2023-01-29T17:47:15.850Z,-1.07
2023-01-29T17:49:44.341Z,-1.11
2023-01-29T17:52:12.880Z,-1.10
2023-01-29T17:54:41.520Z,-1.11
2023-01-29T17:57:18.601Z,-1.10
2023-01-29T17:59:46.996Z,-1.07
2023-01-29T18:02:29.135Z,-1.08
2023-01-29T18:04:58.476Z,-1.13
2023-01-29T18:07:26.943Z,-1.16
2023-01-29T18:09:55.368Z,-1.14
2023-01-29T18:12:23.826Z,-1.16
2023-01-29T18:14:52.181Z,-1.17
2023-01-29T18:17:22.711Z,-1.18
2023-01-29T18:19:51.111Z,-1.17
2023-01-29T18:22:19.520Z,-1.16
2023-01-29T18:24:47.933Z,-1.15
2023-01-29T18:27:16.395Z,-1.17
2023-01-29T18:29:44.908Z,-1.19
2023-01-29T18:32:13.374Z,-1.22
2023-01-29T18:34:41.802Z,-1.24
2023-01-29T18:37:12.215Z,-1.22
2023-01-29T18:39:41.527Z,-1.18
2023-01-29T18:42:09.898Z,-1.14
2023-01-29T18:44:38.780Z,-1.11
2023-01-29T18:47:07.233Z,-1.12
2023-01-29T18:49:39.288Z,-1.14
2023-01-29T18:52:09.119Z,-1.16
2023-01-29T18:54:37.607Z,-1.18
2023-01-29T18:57:14.636Z,-1.20
2023-01-29T18:59:45.040Z,-1.21
2023-01-29T19:02:16.476Z,-1.24
2023-01-29T19:04:45.527Z,-1.22
2023-01-29T19:07:15.439Z,-1.18
2023-01-29T19:09:46.689Z,-1.19
2023-01-29T19:12:15.173Z,-1.21
2023-01-29T19:14:43.582Z,-1.24
2023-01-29T19:17:12.053Z,-1.25
2023-01-29T19:19:40.543Z,-1.27
2023-01-29T19:22:09.015Z,-1.31
2023-01-29T19:24:39.120Z,-1.39
2023-01-29T19:27:07.628Z,-1.45
2023-01-29T19:29:36.329Z,-1.52
2023-01-29T19:32:04.995Z,-1.52
2023-01-29T19:34:33.590Z,-1.52
2023-01-29T19:37:02.258Z,-1.52
2023-01-29T19:39:33.965Z,-1.55
2023-01-29T19:42:02.598Z,-1.55
2023-01-29T19:44:31.142Z,-1.55
2023-01-29T19:46:59.671Z,-1.54
2023-01-29T19:49:30.280Z,-1.58
2023-01-29T19:51:59.247Z,-1.61
2023-01-29T19:54:28.485Z,-1.58
2023-01-29T19:56:57.274Z,-1.53
2023-01-29T19:59:25.774Z,-1.48
2023-01-29T20:01:54.240Z,-1.44
2023-01-29T20:04:22.702Z,-1.45
2023-01-29T20:06:51.105Z,-1.45
2023-01-29T20:09:19.495Z,-1.49
2023-01-29T20:11:47.923Z,-1.54
2023-01-29T20:14:16.401Z,-1.56
2023-01-29T20:16:44.947Z,-1.59
2023-01-29T20:19:15.156Z,-1.62
2023-01-29T20:21:46.985Z,-1.63
2023-01-29T20:24:15.567Z,-1.62
2023-01-29T20:26:44.113Z,-1.57
2023-01-29T20:29:13.592Z,-1.56
2023-01-29T20:31:42.091Z,-1.61
2023-01-29T20:34:10.690Z,-1.60
2023-01-29T20:36:39.109Z,-1.55
2023-01-29T20:39:07.561Z,-1.54
2023-01-29T20:41:37.265Z,-1.57
2023-01-29T20:44:05.878Z,-1.63
2023-01-29T20:46:35.571Z,-1.69
2023-01-29T20:49:04.622Z,-1.74
2023-01-29T20:51:33.424Z,-1.72
2023-01-29T20:54:01.764Z,-1.63
2023-01-29T20:56:36.482Z,-1.59
2023-01-29T20:59:11.367Z,-1.54
2023-01-29T21:01:39.829Z,-1.51
2023-01-29T21:04:08.295Z,-1.54
2023-01-29T21:06:36.784Z,-1.57
2023-01-29T21:09:05.307Z,-1.61
2023-01-29T21:11:33.843Z,-1.66
2023-01-29T21:14:02.320Z,-1.69
2023-01-29T21:16:30.994Z,-1.74
2023-01-29T21:19:00.184Z,-1.80
2023-01-29T21:21:28.603Z,-1.83
2023-01-29T21:23:58.343Z,-1.84
2023-01-29T21:26:26.838Z,-1.88
2023-01-29T21:28:55.327Z,-1.94
2023-01-29T21:31:23.859Z,-1.97
2023-01-29T21:33:52.429Z,-2.00
2023-01-29T21:36:21.077Z,-2.07
2023-01-29T21:38:49.605Z,-2.09
2023-01-29T21:41:18.071Z,-2.14
2023-01-29T21:43:46.525Z,-2.19
2023-01-29T21:46:16.300Z,-2.23
2023-01-29T21:48:44.877Z,-2.25
2023-01-29T21:51:13.292Z,-2.24
2023-01-29T21:53:42.553Z,-2.25
2023-01-29T21:56:10.940Z,-2.24
2023-01-29T21:58:39.403Z,-2.25
2023-01-29T22:01:35.533Z,-2.24
2023-01-29T22:03:57.309Z,-2.16
2023-01-29T22:06:26.408Z,-2.07
2023-01-29T22:08:54.853Z,-2.00
2023-01-29T22:11:23.278Z,-1.99
2023-01-29T22:13:51.728Z,-1.99
2023-01-29T22:16:20.320Z,-1.98
2023-01-29T22:18:49.721Z,-1.99
2023-01-29T22:21:18.141Z,-2.01
2023-01-29T22:23:48.537Z,-2.06
2023-01-29T22:26:17.422Z,-2.12
2023-01-29T22:28:46.403Z,-2.14
2023-01-29T22:31:14.989Z,-2.17
2023-01-29T22:33:43.580Z,-2.18
2023-01-29T22:36:12.062Z,-2.20
2023-01-29T22:38:43.275Z,-2.18
2023-01-29T22:41:12.673Z,-2.19
2023-01-29T22:43:41.332Z,-2.21
2023-01-29T22:46:13.185Z,-2.24
2023-01-29T22:48:41.703Z,-2.27
2023-01-29T22:51:10.555Z,-2.29
2023-01-29T22:53:49.694Z,-2.29
2023-01-29T22:56:19.280Z,-2.31
2023-01-29T22:58:52.511Z,-2.30
2023-01-29T23:01:24.062Z,-2.34
2023-01-29T23:03:53.086Z,-2.30
2023-01-29T23:06:22.059Z,-2.22
2023-01-29T23:08:51.244Z,-2.13
2023-01-29T23:11:23.670Z,-2.07
2023-01-29T23:13:54.614Z,-2.03
2023-01-29T23:16:27.695Z,-2.02
2023-01-29T23:18:57.390Z,-2.01
2023-01-29T23:21:27.458Z,-2.01
2023-01-29T23:23:58.464Z,-2.00
2023-01-29T23:26:47.398Z,-1.98
2023-01-29T23:29:16.018Z,-2.03
2023-01-29T23:31:44.702Z,-2.08
2023-01-29T23:34:13.987Z,-2.13
2023-01-29T23:36:42.685Z,-2.14
2023-01-29T23:39:11.116Z,-2.13
2023-01-29T23:41:39.574Z,-2.12
2023-01-29T23:44:08.215Z,-2.11
2023-01-29T23:46:36.736Z,-2.11
2023-01-29T23:49:05.109Z,-2.09
2023-01-29T23:51:33.467Z,-2.07
2023-01-29T23:54:01.895Z,-2.07
2023-01-29T23:56:30.410Z,-2.09
2023-01-29T23:58:59.151Z,-2.12
